createdAt,value
2019-04-21T00:00:37.361Z,92.70
2019-04-21T00:03:15.162Z,92.90
2019-04-21T00:05:58.638Z,93.20
2019-04-21T00:11:05.994Z,93.30
2019-04-21T00:13:31.316Z,93.30
2019-04-21T00:15:48.828Z,93.40
2019-04-21T00:18:46.465Z,93.50
2019-04-21T00:21:16.223Z,93.50
2019-04-21T00:23:58.472Z,93.50
2019-04-21T00:26:31.724Z,93.50
2019-04-21T00:29:03.726Z,93.70
2019-04-21T00:31:28.623Z,93.70
2019-04-21T00:33:47.745Z,93.80
2019-04-21T00:36:22.659Z,93.80
2019-04-21T00:39:14.353Z,93.80
2019-04-21T00:41:36.724Z,93.50
2019-04-21T00:44:00.728Z,91.40
2019-04-21T00:46:37.245Z,94.10
2019-04-21T00:49:05.934Z,94.10
2019-04-21T00:51:54.122Z,94.20
2019-04-21T00:54:24.852Z,94.10
2019-04-21T00:56:58.704Z,94.30
2019-04-21T00:59:25.927Z,94.10
2019-04-21T01:01:55.599Z,94.20
2019-04-21T01:04:33.319Z,94.30
2019-04-21T01:06:54.425Z,94.20
2019-04-21T01:09:27.852Z,94.70
2019-04-21T01:12:01.296Z,94.20
2019-04-21T01:14:43.137Z,94.40
2019-04-21T01:17:05.013Z,94.30
2019-04-21T01:19:33.466Z,94.30
2019-04-21T01:21:46.425Z,94.30
2019-04-21T01:24:22.657Z,94.40
2019-04-21T01:26:59.583Z,94.40
2019-04-21T01:29:44.133Z,94.60
2019-04-21T01:32:12.882Z,94.50
2019-04-21T01:34:40.434Z,94.50
2019-04-21T01:37:04.094Z,94.60
2019-04-21T01:39:51.480Z,94.70
2019-04-21T01:42:15.898Z,94.70
2019-04-21T01:44:46.262Z,94.70
2019-04-21T01:47:13.134Z,94.90
2019-04-21T01:49:36.964Z,94.80
2019-04-21T01:52:24.066Z,95.00
2019-04-21T01:55:00.201Z,95.30
2019-04-21T01:57:52.609Z,95.10
2019-04-21T02:00:29.938Z,95.10
2019-04-21T02:03:09.758Z,95.30
2019-04-21T02:05:42.089Z,95.50
2019-04-21T02:08:01.136Z,95.90
2019-04-21T02:10:40.058Z,95.60
2019-04-21T02:13:03.558Z,95.20
2019-04-21T02:15:46.079Z,95.20
2019-04-21T02:18:08.952Z,95.40
2019-04-21T02:20:32.743Z,95.40
2019-04-21T02:23:26.388Z,95.60
2019-04-21T02:25:44.647Z,95.40
2019-04-21T02:28:20.789Z,95.50
2019-04-21T02:33:38.203Z,95.40
2019-04-21T02:38:53.018Z,95.80
2019-04-21T02:43:25.585Z,95.80
2019-04-21T02:46:04.326Z,96.20
2019-04-21T02:48:43.467Z,96.50
2019-04-21T02:51:03.981Z,96.30
2019-04-21T02:56:09.792Z,96.30
2019-04-21T03:01:50.350Z,96.50
2019-04-21T03:07:13.255Z,96.50
2019-04-21T03:09:41.018Z,96.60
2019-04-21T03:12:22.184Z,96.50
2019-04-21T03:14:58.571Z,96.40
2019-04-21T03:17:21.770Z,96.50
2019-04-21T03:19:51.366Z,96.90
2019-04-21T03:22:20.873Z,96.90
2019-04-21T03:27:30.798Z,97.10
2019-04-21T03:29:55.130Z,97.10
2019-04-21T03:39:59.313Z,96.80
2019-04-21T03:42:33.823Z,97.20
2019-04-21T03:45:03.652Z,97.30
2019-04-21T03:47:34.542Z,97.30
2019-04-21T03:50:27.351Z,97.50
2019-04-21T03:52:50.432Z,97.40
2019-04-21T03:58:16.918Z,98.20
2019-04-21T04:01:08.273Z,98.90
2019-04-21T04:07:04.046Z,98.40
2019-04-21T04:09:33.144Z,98.70
2019-04-21T04:11:50.865Z,98.50
2019-04-21T04:14:26.783Z,98.10
2019-04-21T04:17:11.863Z,98.40
2019-04-21T04:19:26.798Z,97.90
2019-04-21T04:27:05.284Z,98.00
2019-04-21T04:29:24.111Z,98.10
2019-04-21T04:32:00.787Z,97.70
2019-04-21T04:37:12.430Z,97.00
2019-04-21T04:45:08.357Z,97.10
2019-04-21T04:55:01.249Z,95.20
2019-04-21T04:57:33.903Z,95.10
2019-04-21T05:00:14.328Z,95.00
2019-04-21T05:09:59.885Z,93.60
2019-04-21T05:12:30.941Z,93.30
2019-04-21T05:22:51.851Z,94.00
2019-04-21T05:24:58.414Z,94.80
2019-04-21T05:27:38.062Z,94.40
2019-04-21T05:30:23.371Z,94.60
2019-04-21T05:33:00.901Z,94.30
2019-04-21T05:35:49.288Z,95.40
2019-04-21T05:38:27.288Z,96.80
2019-04-21T05:40:55.226Z,96.30
2019-04-21T05:43:32.526Z,95.20
2019-04-21T05:46:10.463Z,94.00
2019-04-21T05:48:39.206Z,93.90
2019-04-21T05:51:08.850Z,93.50
2019-04-21T05:53:50.546Z,93.60
2019-04-21T05:56:17.333Z,93.90
2019-04-21T05:58:50.926Z,94.20
2019-04-21T06:01:28.527Z,94.40
2019-04-21T06:06:26.423Z,94.40
2019-04-21T06:08:52.642Z,93.90
2019-04-21T06:11:29.015Z,93.50
2019-04-21T06:16:36.495Z,93.50
2019-04-21T06:19:29.402Z,95.00
2019-04-21T06:21:33.170Z,95.10
2019-04-21T06:24:05.212Z,93.80
2019-04-21T06:26:54.731Z,93.00
2019-04-21T06:29:10.166Z,92.50
2019-04-21T06:34:11.143Z,93.00
2019-04-21T06:39:28.048Z,92.90
2019-04-21T06:41:49.058Z,92.30
2019-04-21T06:44:20.344Z,92.30
2019-04-21T06:46:55.178Z,92.00
2019-04-21T06:49:28.104Z,93.40
2019-04-21T06:52:11.417Z,93.10
2019-04-21T06:54:34.206Z,92.70
2019-04-21T06:56:58.416Z,94.20
2019-04-21T06:59:32.004Z,94.00
2019-04-21T07:07:05.610Z,92.80
2019-04-21T07:09:36.416Z,93.10
2019-04-21T07:12:06.384Z,93.50
2019-04-21T07:14:53.309Z,92.10
2019-04-21T07:17:15.046Z,91.90
2019-04-21T07:22:12.719Z,91.80
2019-04-21T07:24:46.273Z,91.70
2019-04-21T07:27:20.629Z,91.00
2019-04-21T07:29:47.473Z,92.20
2019-04-21T07:32:15.352Z,91.50
2019-04-21T07:34:51.571Z,91.40
2019-04-21T07:37:17.374Z,90.50
2019-04-21T07:39:52.778Z,90.40
2019-04-21T07:42:17.442Z,90.30
2019-04-21T07:44:47.336Z,90.80
2019-04-21T07:47:26.757Z,91.70
2019-04-21T07:50:22.771Z,90.00
2019-04-21T07:52:50.510Z,88.40
2019-04-21T07:57:45.695Z,89.30
2019-04-21T08:02:54.424Z,91.00
2019-04-21T08:05:37.740Z,91.20
2019-04-21T08:07:57.094Z,90.30
2019-04-21T08:10:21.272Z,88.40
2019-04-21T08:12:58.298Z,88.50
2019-04-21T08:15:36.523Z,90.40
2019-04-21T08:17:59.606Z,90.40
2019-04-21T08:20:28.518Z,87.00
2019-04-21T08:23:04.946Z,88.60
2019-04-21T08:25:43.631Z,85.50
2019-04-21T08:28:05.297Z,83.90
2019-04-21T08:30:36.521Z,80.00
2019-04-21T08:33:16.161Z,83.60
2019-04-21T08:36:04.756Z,86.00
2019-04-21T08:38:13.888Z,86.40
2019-04-21T08:43:21.677Z,84.50
2019-04-21T08:45:49.764Z,79.90
2019-04-21T08:48:16.926Z,81.20
2019-04-21T08:50:58.655Z,80.20
2019-04-21T08:53:19.755Z,78.40
2019-04-21T08:56:18.485Z,81.40
2019-04-21T08:58:53.024Z,80.40
2019-04-21T09:01:43.061Z,84.00
2019-04-21T09:04:13.106Z,81.80
2019-04-21T09:07:05.329Z,79.70
2019-04-21T09:09:16.806Z,79.10
2019-04-21T09:11:47.165Z,80.60
2019-04-21T09:14:20.681Z,73.90
2019-04-21T09:16:47.537Z,79.60
2019-04-21T09:19:34.037Z,78.90
2019-04-21T09:21:57.818Z,78.50
2019-04-21T09:24:24.631Z,77.40
2019-04-21T09:26:53.671Z,75.70
2019-04-21T09:29:17.221Z,76.90
2019-04-21T09:31:41.785Z,77.10
2019-04-21T09:34:14.275Z,71.70
2019-04-21T09:36:46.735Z,76.00
2019-04-21T09:39:18.393Z,71.20
2019-04-21T09:41:45.014Z,71.10
2019-04-21T09:44:22.078Z,77.90
2019-04-21T09:46:50.737Z,80.00
2019-04-21T09:49:22.485Z,76.80
2019-04-21T09:51:48.369Z,76.00
2019-04-21T09:54:24.805Z,70.70
2019-04-21T09:56:54.971Z,73.40
2019-04-21T09:59:28.219Z,73.00
2019-04-21T10:02:05.642Z,74.20
2019-04-21T10:04:24.037Z,67.10
2019-04-21T10:06:54.437Z,68.70
2019-04-21T10:09:24.390Z,70.10
2019-04-21T10:11:54.886Z,65.90
2019-04-21T10:14:24.572Z,68.30
2019-04-21T10:17:13.246Z,67.10
2019-04-21T10:19:43.841Z,67.20
2019-04-21T10:22:14.830Z,68.80
2019-04-21T10:25:06.768Z,70.00
2019-04-21T10:27:36.951Z,66.70
2019-04-21T10:30:08.298Z,68.40
2019-04-21T10:32:38.590Z,64.30
2019-04-21T10:35:08.618Z,63.80
2019-04-21T10:37:49.893Z,66.20
2019-04-21T10:40:10.026Z,62.80
2019-04-21T10:42:40.431Z,67.60
2019-04-21T10:45:10.890Z,65.70
2019-04-21T10:47:41.024Z,57.50
2019-04-21T10:50:11.823Z,59.80
2019-04-21T10:53:20.740Z,59.90
2019-04-21T10:56:06.099Z,56.50
2019-04-21T10:58:34.174Z,59.90
2019-04-21T11:01:12.735Z,59.40
2019-04-21T11:03:53.147Z,59.70
2019-04-21T11:06:24.346Z,59.20
2019-04-21T11:08:55.718Z,63.00
2019-04-21T11:11:25.914Z,55.60
2019-04-21T11:13:56.814Z,54.80
2019-04-21T11:16:26.888Z,60.90
2019-04-21T11:18:57.798Z,54.60
2019-04-21T11:21:27.525Z,55.70
2019-04-21T11:23:58.327Z,56.70
2019-04-21T11:26:27.959Z,53.90
2019-04-21T11:28:58.904Z,55.40
2019-04-21T11:31:29.248Z,58.80
2019-04-21T11:33:58.973Z,63.40
2019-04-21T11:36:29.216Z,57.70
2019-04-21T11:39:31.620Z,58.50
2019-04-21T11:41:52.254Z,56.10
2019-04-21T11:44:24.645Z,55.30
2019-04-21T11:46:54.287Z,56.10
2019-04-21T11:49:24.552Z,51.90
2019-04-21T11:51:56.394Z,59.90
2019-04-21T11:54:26.787Z,51.10
2019-04-21T11:56:56.903Z,56.90
2019-04-21T11:59:27.903Z,52.50
2019-04-21T12:01:57.559Z,51.40
2019-04-21T12:04:27.513Z,52.10
2019-04-21T12:06:57.923Z,49.60
2019-04-21T12:09:27.746Z,51.00
2019-04-21T12:11:57.324Z,52.10
2019-04-21T12:14:27.980Z,46.60
2019-04-21T12:16:57.664Z,48.80
2019-04-21T12:19:30.550Z,53.10
2019-04-21T12:22:08.803Z,48.20
2019-04-21T12:24:36.213Z,50.40
2019-04-21T12:27:05.948Z,52.60
2019-04-21T12:29:35.632Z,48.00
2019-04-21T12:32:24.222Z,48.60
2019-04-21T12:34:55.239Z,52.60
2019-04-21T12:37:25.096Z,45.60
2019-04-21T12:39:54.821Z,46.90
2019-04-21T12:42:24.866Z,50.60
2019-04-21T12:44:55.120Z,52.10
2019-04-21T12:47:25.854Z,44.20
2019-04-21T12:49:56.913Z,47.60
2019-04-21T12:52:27.373Z,46.30
2019-04-21T12:54:57.593Z,48.30
2019-04-21T12:57:28.705Z,48.60
2019-04-21T12:59:58.426Z,45.10
2019-04-21T13:02:27.940Z,47.10
2019-04-21T13:04:57.810Z,50.50
2019-04-21T13:07:27.747Z,45.10
2019-04-21T13:09:58.080Z,50.20
2019-04-21T13:12:28.896Z,42.50
2019-04-21T13:14:59.578Z,47.70
2019-04-21T13:17:31.004Z,45.00
2019-04-21T13:20:01.225Z,46.30
2019-04-21T13:22:31.999Z,48.00
2019-04-21T13:25:02.390Z,44.10
2019-04-21T13:27:32.250Z,46.40
2019-04-21T13:30:02.209Z,41.90
2019-04-21T13:32:33.109Z,42.70
2019-04-21T13:35:03.314Z,44.30
2019-04-21T13:37:33.414Z,46.50
2019-04-21T13:40:45.045Z,45.10
2019-04-21T13:43:02.871Z,45.50
2019-04-21T13:45:32.205Z,45.50
2019-04-21T13:48:04.436Z,44.80
2019-04-21T13:50:35.299Z,45.30
2019-04-21T13:53:05.035Z,49.70
2019-04-21T13:55:36.887Z,45.00
2019-04-21T13:58:06.375Z,45.10
2019-04-21T14:00:36.027Z,43.70
2019-04-21T14:03:06.946Z,44.00
2019-04-21T14:05:38.122Z,43.50
2019-04-21T14:08:09.153Z,44.10
2019-04-21T14:10:41.816Z,44.50
2019-04-21T14:13:12.156Z,45.20
2019-04-21T14:15:42.088Z,43.00
2019-04-21T14:18:13.073Z,44.10
2019-04-21T14:20:42.966Z,44.10
2019-04-21T14:23:22.472Z,43.30
2019-04-21T14:25:43.899Z,42.20
2019-04-21T14:28:14.196Z,41.50
2019-04-21T14:30:46.031Z,40.30
2019-04-21T14:33:16.153Z,40.10
2019-04-21T14:35:47.022Z,41.10
2019-04-21T14:38:16.727Z,42.60
2019-04-21T14:40:46.258Z,38.80
2019-04-21T14:43:16.467Z,40.90
2019-04-21T14:46:06.381Z,40.90
2019-04-21T14:48:54.963Z,42.00
2019-04-21T14:51:52.949Z,42.30
2019-04-21T14:54:42.662Z,41.10
2019-04-21T14:57:13.481Z,42.60
2019-04-21T14:59:43.117Z,43.40
2019-04-21T15:02:14.344Z,42.80
2019-04-21T15:04:43.999Z,44.30
2019-04-21T15:07:13.522Z,45.80
2019-04-21T15:09:44.599Z,45.90
2019-04-21T15:12:14.218Z,41.90
2019-04-21T15:14:44.153Z,42.50
2019-04-21T15:17:16.333Z,43.00
2019-04-21T15:19:50.923Z,45.50
2019-04-21T15:22:16.467Z,45.80
2019-04-21T15:24:46.046Z,47.10
2019-04-21T15:27:16.787Z,42.80
2019-04-21T15:29:46.839Z,45.10
2019-04-21T15:32:16.901Z,48.00
2019-04-21T15:34:47.730Z,45.20
2019-04-21T15:37:17.873Z,45.30
2019-04-21T15:39:48.753Z,44.10
2019-04-21T15:42:18.644Z,43.80
2019-04-21T15:44:48.480Z,44.90
2019-04-21T15:47:18.101Z,44.70
2019-04-21T15:50:03.661Z,44.50
2019-04-21T15:52:29.803Z,46.60
2019-04-21T15:55:12.328Z,44.50
2019-04-21T15:58:04.819Z,43.70
2019-04-21T16:00:40.815Z,44.20
2019-04-21T16:03:10.851Z,44.80
2019-04-21T16:05:40.626Z,45.20
2019-04-21T16:08:10.362Z,45.30
2019-04-21T16:10:47.142Z,47.80
2019-04-21T16:13:11.825Z,45.00
2019-04-21T16:15:41.415Z,44.80
2019-04-21T16:18:12.167Z,44.00
2019-04-21T16:20:41.899Z,45.20
2019-04-21T16:23:12.811Z,45.90
2019-04-21T16:25:44.309Z,45.40
2019-04-21T16:28:15.340Z,46.90
2019-04-21T16:30:52.122Z,46.00
2019-04-21T16:33:23.147Z,44.50
2019-04-21T16:35:53.772Z,44.60
2019-04-21T16:38:23.669Z,44.30
2019-04-21T16:40:58.235Z,47.40
2019-04-21T16:43:24.969Z,43.50
2019-04-21T16:45:57.466Z,43.30
2019-04-21T16:48:27.340Z,43.60
2019-04-21T16:50:57.496Z,44.20
2019-04-21T16:53:35.348Z,45.00
2019-04-21T16:56:11.000Z,44.70
2019-04-21T16:58:48.315Z,44.80
2019-04-21T17:01:24.227Z,44.20
2019-04-21T17:03:54.680Z,44.20
2019-04-21T17:06:24.959Z,45.10
2019-04-21T17:08:54.716Z,46.00
2019-04-21T17:11:29.458Z,44.90
2019-04-21T17:13:56.549Z,46.30
2019-04-21T17:16:48.251Z,45.80
2019-04-21T17:19:09.157Z,45.80
2019-04-21T17:21:30.094Z,45.40
2019-04-21T17:23:59.694Z,46.30
2019-04-21T17:26:29.222Z,46.50
2019-04-21T17:28:58.861Z,46.40
2019-04-21T17:31:28.818Z,46.90
2019-04-21T17:34:06.346Z,47.20
2019-04-21T17:36:29.625Z,46.80
2019-04-21T17:39:00.131Z,47.70
2019-04-21T17:41:36.431Z,48.00
2019-04-21T17:44:02.429Z,48.30
2019-04-21T17:46:40.785Z,49.00
2019-04-21T17:49:03.286Z,49.30
2019-04-21T17:51:54.602Z,49.30
2019-04-21T17:54:35.682Z,49.70
2019-04-21T17:57:24.577Z,50.90
2019-04-21T17:59:56.890Z,51.90
2019-04-21T18:02:22.947Z,52.80
2019-04-21T18:04:58.889Z,52.70
2019-04-21T18:07:27.333Z,52.50
2019-04-21T18:10:04.352Z,52.10
2019-04-21T18:12:33.555Z,51.90
2019-04-21T18:15:01.417Z,52.60
2019-04-21T18:17:20.901Z,52.40
2019-04-21T18:19:51.836Z,53.10
2019-04-21T18:22:54.934Z,53.10
2019-04-21T18:25:40.326Z,53.50
2019-04-21T18:27:57.042Z,53.80
2019-04-21T18:30:40.717Z,54.40
2019-04-21T18:33:14.173Z,54.50
2019-04-21T18:36:02.282Z,55.40
2019-04-21T18:39:12.680Z,55.30
2019-04-21T18:41:42.704Z,55.00
2019-04-21T18:47:16.383Z,54.20
2019-04-21T18:49:43.731Z,55.30
2019-04-21T18:52:26.736Z,55.80
2019-04-21T18:55:01.433Z,54.90
2019-04-21T18:57:30.578Z,55.80
2019-04-21T18:59:53.298Z,57.70
2019-04-21T19:02:24.442Z,58.30
2019-04-21T19:05:00.206Z,58.30
2019-04-21T19:07:45.231Z,58.70
2019-04-21T19:13:16.001Z,59.40
2019-04-21T19:15:17.132Z,59.60
2019-04-21T19:18:24.086Z,59.80
2019-04-21T19:20:26.845Z,60.70
2019-04-21T19:22:47.677Z,61.80
2019-04-21T19:25:20.640Z,62.60
2019-04-21T19:27:51.634Z,63.40
2019-04-21T19:30:38.419Z,65.40
2019-04-21T19:32:58.369Z,66.50
2019-04-21T19:35:14.939Z,73.10
2019-04-21T19:37:54.003Z,73.00
2019-04-21T19:40:34.043Z,73.30
2019-04-21T19:43:00.948Z,74.00
2019-04-21T19:45:36.793Z,74.00
2019-04-21T19:48:15.321Z,73.80
2019-04-21T19:50:46.714Z,76.40
2019-04-21T19:53:07.467Z,72.50
2019-04-21T19:55:29.829Z,71.70
2019-04-21T19:58:00.856Z,76.80
2019-04-21T20:00:34.651Z,78.60
2019-04-21T20:03:04.429Z,78.60
2019-04-21T20:05:42.989Z,78.10
2019-04-21T20:08:22.202Z,75.30
2019-04-21T20:10:58.089Z,79.10
2019-04-21T20:13:42.906Z,79.70
2019-04-21T20:15:58.310Z,81.20
2019-04-21T20:18:21.242Z,78.50
2019-04-21T20:20:43.731Z,79.00
2019-04-21T20:23:16.943Z,79.80
2019-04-21T20:25:54.372Z,82.60
2019-04-21T20:28:33.134Z,82.60
2019-04-21T20:31:06.690Z,82.80
2019-04-21T20:36:15.000Z,83.80
2019-04-21T20:38:32.721Z,84.10
2019-04-21T20:41:02.210Z,83.60
2019-04-21T20:43:42.639Z,81.10
2019-04-21T20:46:12.267Z,84.10
2019-04-21T20:48:42.163Z,84.50
2019-04-21T20:51:18.313Z,84.80
2019-04-21T20:53:46.456Z,85.00
2019-04-21T20:56:12.986Z,84.20
2019-04-21T20:58:53.877Z,85.40
2019-04-21T21:01:30.800Z,86.00
2019-04-21T21:03:48.961Z,86.00
2019-04-21T21:06:21.717Z,82.80
2019-04-21T21:08:56.885Z,86.50
2019-04-21T21:11:26.143Z,86.30
2019-04-21T21:14:00.388Z,86.00
2019-04-21T21:16:35.075Z,87.20
2019-04-21T21:19:13.388Z,87.50
2019-04-21T21:21:29.537Z,87.30
2019-04-21T21:24:05.404Z,81.90
2019-04-21T21:26:36.906Z,88.50
2019-04-21T21:29:04.894Z,88.80
2019-04-21T21:31:41.477Z,88.90
2019-04-21T21:34:27.861Z,88.40
2019-04-21T21:37:08.652Z,88.80
2019-04-21T21:39:41.158Z,89.30
2019-04-21T21:41:55.173Z,89.50
2019-04-21T21:44:22.902Z,88.90
2019-04-21T21:47:00.471Z,89.80
2019-04-21T21:49:40.905Z,89.50
2019-04-21T21:52:06.703Z,90.00
2019-04-21T21:54:29.714Z,89.80
2019-04-21T21:57:00.558Z,90.10
2019-04-21T21:59:33.627Z,90.10
2019-04-21T22:02:03.162Z,88.70
2019-04-21T22:04:35.591Z,90.20
2019-04-21T22:07:11.195Z,87.50
2019-04-21T22:09:36.527Z,90.20
2019-04-21T22:12:10.992Z,90.60
2019-04-21T22:14:47.948Z,90.80
2019-04-21T22:17:31.537Z,90.70
2019-04-21T22:20:08.515Z,91.20
2019-04-21T22:22:32.761Z,91.40
2019-04-21T22:24:59.414Z,91.30
2019-04-21T22:27:21.475Z,91.40
2019-04-21T22:29:55.042Z,91.50
2019-04-21T22:32:27.534Z,91.70
2019-04-21T22:34:58.344Z,91.70
2019-04-21T22:37:39.141Z,91.80
2019-04-21T22:40:11.318Z,91.90
2019-04-21T22:42:33.097Z,91.80
2019-04-21T22:44:58.588Z,92.10
2019-04-21T22:47:32.598Z,92.10
2019-04-21T22:49:59.435Z,92.00
2019-04-21T22:52:30.502Z,92.10
2019-04-21T22:55:07.480Z,92.20
2019-04-21T22:57:36.509Z,92.30
2019-04-21T23:00:07.901Z,92.50
2019-04-21T23:02:36.788Z,91.00
2019-04-21T23:05:07.998Z,91.80
2019-04-21T23:07:44.141Z,93.20
2019-04-21T23:10:09.432Z,93.00
2019-04-21T23:12:42.105Z,93.40
2019-04-21T23:15:19.054Z,91.90
2019-04-21T23:18:04.757Z,92.90
2019-04-21T23:20:39.408Z,92.50
2019-04-21T23:23:14.966Z,92.10
2019-04-21T23:25:39.232Z,91.60
2019-04-21T23:28:09.243Z,91.60
2019-04-21T23:30:45.775Z,92.00
2019-04-21T23:32:59.667Z,92.00
2019-04-21T23:35:32.279Z,92.10
2019-04-21T23:38:01.595Z,91.90
2019-04-21T23:40:27.845Z,91.90
2019-04-21T23:43:00.064Z,92.20
2019-04-21T23:45:35.834Z,92.40
2019-04-21T23:48:15.652Z,92.90
2019-04-21T23:50:42.829Z,93.00
2019-04-21T23:53:03.615Z,91.70
2019-04-21T23:55:33.229Z,92.00
2019-04-21T23:58:08.801Z,92.60
